Time;durP1;ratioP1;P1;durP2;ratioP2;P2;SDS_P1;SDS_P2;PMS_P1;PMS_P2;Temp;Humidity;BMP_temperature;BMP_pressure;BME280_temperature;BME280_humidity;BME280_pressure;Samples;Min_cycle;Max_cycle;Signal;HPM_P1;HPM_P2
2022/05/06 00:01:55;;;;;;;10.13;4.33;;;15.40;66.40;;;;;;5058148;28;20195;-79
2022/05/06 00:04:24;;;;;;;8.87;3.87;;;15.30;66.40;;;;;;5057684;28;20195;-79
2022/05/06 00:06:53;;;;;;;8.00;4.20;;;15.30;66.30;;;;;;5054122;28;20194;-79
2022/05/06 00:09:21;;;;;;;7.93;3.93;;;15.30;66.20;;;;;;5053873;28;20197;-79
2022/05/06 00:11:51;;;;;;;8.43;4.50;;;15.30;66.20;;;;;;5063230;28;20225;-79
2022/05/06 00:14:19;;;;;;;9.83;4.50;;;15.20;66.00;;;;;;5052016;28;20241;-79
2022/05/06 00:16:48;;;;;;;9.40;3.73;;;15.20;66.00;;;;;;5056661;28;20692;-79
2022/05/06 00:19:16;;;;;;;8.67;3.73;;;15.20;66.10;;;;;;5061459;28;20202;-79
2022/05/06 00:21:44;;;;;;;8.83;4.33;;;15.20;66.10;;;;;;5049187;28;20878;-80
2022/05/06 00:24:13;;;;;;;7.67;3.90;;;15.20;66.10;;;;;;5048948;28;20195;-79
2022/05/06 00:26:42;;;;;;;10.00;4.13;;;15.10;66.10;;;;;;5055223;28;20182;-79
2022/05/06 00:29:11;;;;;;;11.13;3.93;;;15.10;66.10;;;;;;5058106;28;20683;-79
2022/05/06 00:31:40;;;;;;;6.23;3.33;;;15.10;66.10;;;;;;5054422;28;20195;-79
2022/05/06 00:34:09;;;;;;;9.70;4.03;;;15.00;66.20;;;;;;5052856;28;20206;-79
2022/05/06 00:36:37;;;;;;;7.90;3.97;;;15.10;66.20;;;;;;5051460;28;20217;-79
2022/05/06 00:39:05;;;;;;;7.80;3.77;;;15.00;66.20;;;;;;5047788;28;20217;-79
2022/05/06 00:41:35;;;;;;;8.97;4.13;;;15.00;66.30;;;;;;5054629;28;20202;-80
2022/05/06 00:44:06;;;;;;;8.07;3.87;;;15.00;66.30;;;;;;5049952;28;20198;-79
2022/05/06 00:46:37;;;;;;;7.47;4.23;;;14.90;66.40;;;;;;5059152;28;20182;-79
2022/05/06 00:49:10;;;;;;;10.87;3.73;;;14.90;66.50;;;;;;5049264;28;20186;-79
2022/05/06 00:51:39;;;;;;;8.73;3.93;;;14.80;66.50;;;;;;5051527;28;20218;-80
2022/05/06 00:54:08;;;;;;;10.87;3.83;;;14.80;66.60;;;;;;5061700;28;20198;-79
2022/05/06 00:56:37;;;;;;;12.50;3.80;;;14.80;66.60;;;;;;5059499;28;20229;-80
2022/05/06 00:59:06;;;;;;;8.83;3.93;;;14.80;66.60;;;;;;5052527;28;20698;-79
2022/05/06 01:01:37;;;;;;;7.10;3.40;;;14.80;66.60;;;;;;5046787;28;20656;-80
2022/05/06 01:04:07;;;;;;;11.90;3.87;;;14.80;66.60;;;;;;5060177;28;20236;-79
2022/05/06 01:06:36;;;;;;;9.93;3.60;;;14.80;66.50;;;;;;5061659;28;20203;-78
2022/05/06 01:09:05;;;;;;;9.43;3.97;;;14.80;66.50;;;;;;5046116;28;20647;-79
2022/05/06 01:11:34;;;;;;;7.10;3.57;;;14.70;66.50;;;;;;5053349;28;20212;-79
2022/05/06 01:14:02;;;;;;;9.67;3.80;;;14.70;66.60;;;;;;5062772;28;20215;-79
2022/05/06 01:16:34;;;;;;;10.37;3.43;;;14.60;66.60;;;;;;5057673;28;20256;-79
2022/05/06 01:19:05;;;;;;;10.67;3.50;;;14.60;66.60;;;;;;5045931;28;20286;-79
2022/05/06 01:21:37;;;;;;;8.73;3.20;;;14.60;66.50;;;;;;5056582;28;20187;-79
2022/05/06 01:24:08;;;;;;;9.43;3.33;;;14.60;66.50;;;;;;5048861;28;20191;-79
2022/05/06 01:26:54;;;;;;;6.23;3.10;;;14.60;66.30;;;;;;5052977;28;20194;-80
2022/05/06 01:29:23;;;;;;;6.60;2.97;;;14.60;66.30;;;;;;5057597;28;20197;-79
2022/05/06 01:31:52;;;;;;;9.30;3.87;;;14.50;65.90;;;;;;5054827;28;20194;-79
2022/05/06 01:34:23;;;;;;;5.80;3.57;;;14.50;65.80;;;;;;5047220;28;20195;-79
2022/05/06 01:36:54;;;;;;;6.30;2.77;;;14.40;65.50;;;;;;5043601;28;20908;-79
2022/05/06 01:39:29;;;;;;;8.40;2.60;;;14.40;65.40;;;;;;5046805;28;20194;-80
2022/05/06 01:42:02;;;;;;;6.00;2.70;;;14.40;65.30;;;;;;5045979;28;20182;-78
2022/05/06 01:44:36;;;;;;;4.87;2.80;;;14.40;66.10;;;;;;5054763;28;20187;-83
2022/05/06 01:47:09;;;;;;;7.97;2.80;;;14.40;65.20;;;;;;5049299;28;20198;-80
2022/05/06 01:49:40;;;;;;;7.50;2.67;;;14.40;64.70;;;;;;5054261;28;20187;-80
2022/05/06 01:52:11;;;;;;;7.10;2.50;;;14.40;64.70;;;;;;5058908;28;20201;-79
2022/05/06 01:54:41;;;;;;;5.53;2.40;;;14.40;64.60;;;;;;5052863;28;20190;-78
2022/05/06 01:57:09;;;;;;;9.20;2.53;;;14.30;64.20;;;;;;5048050;28;20225;-79
2022/05/06 01:59:38;;;;;;;7.60;2.77;;;14.30;64.10;;;;;;5044603;28;20195;-79
2022/05/06 02:02:06;;;;;;;8.77;2.97;;;14.30;64.00;;;;;;5058657;28;20190;-79
2022/05/06 02:07:20;;;;;;;5.97;2.50;;;14.30;64.10;;;;;;5055382;28;20667;-78
2022/05/06 02:09:50;;;;;;;6.60;2.80;;;14.30;64.10;;;;;;5057104;28;20186;-77
2022/05/06 02:12:19;;;;;;;6.30;2.70;;;14.30;64.20;;;;;;5057725;28;20201;-78
2022/05/06 02:14:47;;;;;;;6.57;2.57;;;14.30;64.20;;;;;;5066014;28;20333;-79
2022/05/06 02:17:16;;;;;;;7.97;3.17;;;14.30;64.20;;;;;;5078860;28;20233;-79
2022/05/06 02:19:44;;;;;;;6.87;2.77;;;14.30;64.30;;;;;;5080863;28;20189;-79
2022/05/06 02:22:13;;;;;;;9.13;3.00;;;14.30;64.50;;;;;;5071955;28;20652;-79
2022/05/06 02:24:41;;;;;;;6.10;2.67;;;14.30;64.50;;;;;;5076011;28;20667;-80
2022/05/06 02:27:12;;;;;;;7.97;2.50;;;14.30;64.50;;;;;;5074825;28;20280;-78
2022/05/06 02:33:12;;;;;;;6.37;2.43;;;14.30;64.50;;;;;;5068717;28;20194;-79
2022/05/06 02:35:15;;;;;;;4.00;2.20;;;14.40;64.30;;;;;;5069078;28;20192;-79
2022/05/06 02:37:44;;;;;;;7.03;2.50;;;14.40;64.20;;;;;;5066706;28;20245;-79
2022/05/06 02:40:13;;;;;;;5.13;2.40;;;14.30;64.00;;;;;;5068777;28;20205;-78
2022/05/06 02:42:43;;;;;;;5.50;2.37;;;14.40;63.70;;;;;;5064992;28;20228;-79
2022/05/06 02:45:13;;;;;;;5.93;2.37;;;14.30;63.20;;;;;;5077899;28;20193;-78
2022/05/06 02:47:41;;;;;;;4.17;2.37;;;14.30;63.20;;;;;;5078592;28;20224;-79
2022/05/06 02:50:10;;;;;;;3.33;1.90;;;14.30;63.00;;;;;;5067687;28;20186;-79
2022/05/06 02:52:39;;;;;;;10.30;2.40;;;14.30;62.80;;;;;;5075806;28;20200;-77
2022/05/06 02:55:08;;;;;;;5.20;2.27;;;14.30;62.80;;;;;;5076964;28;20198;-79
2022/05/06 02:57:36;;;;;;;4.97;2.47;;;14.30;62.60;;;;;;5080076;28;20225;-81
2022/05/06 03:00:08;;;;;;;7.93;2.40;;;14.30;62.60;;;;;;5080695;28;20194;-79
2022/05/06 03:02:36;;;;;;;5.77;2.40;;;14.30;62.50;;;;;;5070990;28;20198;-78
2022/05/06 03:05:09;;;;;;;11.40;2.60;;;14.30;62.40;;;;;;5077880;28;20201;-78
2022/05/06 03:07:38;;;;;;;4.90;2.40;;;14.30;62.30;;;;;;5077742;28;20190;-80
2022/05/06 03:10:11;;;;;;;7.93;2.33;;;14.30;62.00;;;;;;5078781;28;20194;-79
2022/05/06 03:12:43;;;;;;;5.07;2.30;;;14.30;61.90;;;;;;5080816;28;20193;-80
2022/05/06 03:15:13;;;;;;;7.90;2.50;;;14.30;61.70;;;;;;5068541;28;20695;-79
2022/05/06 03:17:41;;;;;;;5.23;2.37;;;14.20;61.30;;;;;;5080566;28;20228;-78
2022/05/06 03:20:12;;;;;;;7.27;2.50;;;14.20;61.30;;;;;;5085993;28;20194;-78
2022/05/06 03:22:42;;;;;;;7.13;2.30;;;14.20;61.40;;;;;;5088932;28;20189;-79
2022/05/06 03:25:11;;;;;;;6.23;2.43;;;14.30;61.70;;;;;;5080819;28;20432;-80
2022/05/06 03:30:28;;;;;;;3.93;2.13;;;14.30;61.70;;;;;;5079019;28;20185;-79
2022/05/06 03:32:58;;;;;;;5.93;2.40;;;14.30;61.10;;;;;;5080519;28;21012;-79
2022/05/06 03:35:28;;;;;;;4.67;2.10;;;14.30;61.00;;;;;;5088629;28;20346;-78
2022/05/06 03:37:57;;;;;;;5.47;2.70;;;14.30;61.10;;;;;;5081401;28;20212;-79
2022/05/06 03:40:29;;;;;;;4.90;2.37;;;14.30;61.00;;;;;;5075844;28;20201;-79
2022/05/06 03:42:57;;;;;;;5.33;2.70;;;14.30;60.70;;;;;;5081456;28;20306;-83
2022/05/06 03:45:27;;;;;;;5.90;2.47;;;14.30;60.60;;;;;;5086811;28;20197;-78
2022/05/06 03:47:55;;;;;;;7.17;2.40;;;14.30;60.50;;;;;;5092771;28;20619;-78
2022/05/06 03:53:09;;;;;;;6.57;2.17;;;14.30;60.40;;;;;;5084378;28;20190;-76
2022/05/06 03:55:38;;;;;;;8.50;2.60;;;14.30;60.00;;;;;;5088657;28;20586;-79
2022/05/06 03:58:06;;;;;;;8.27;2.60;;;14.40;60.10;;;;;;5083854;28;20225;-79
2022/05/06 04:00:36;;;;;;;5.57;2.67;;;14.40;60.20;;;;;;5076360;28;20236;-78
2022/05/06 04:03:04;;;;;;;8.53;2.23;;;14.40;60.30;;;;;;5073272;28;20806;-77
2022/05/06 04:05:34;;;;;;;6.80;2.87;;;14.40;60.30;;;;;;5089203;28;20204;-78
2022/05/06 04:08:03;;;;;;;9.37;2.60;;;14.50;60.30;;;;;;5086347;28;20193;-80
2022/05/06 04:10:31;;;;;;;5.07;2.57;;;14.50;60.30;;;;;;5076984;28;20564;-78
2022/05/06 04:13:02;;;;;;;6.83;2.40;;;14.60;60.40;;;;;;5085482;28;20194;-79
2022/05/06 04:15:32;;;;;;;5.90;2.40;;;14.60;60.30;;;;;;5080997;28;20192;-80
2022/05/06 04:18:05;;;;;;;8.10;2.63;;;14.60;60.20;;;;;;5083152;28;20210;-78
2022/05/06 04:23:30;;;;;;;14.60;2.47;;;14.70;60.30;;;;;;5038840;28;20198;-78
2022/05/06 04:26:02;;;;;;;6.70;2.67;;;14.80;60.00;;;;;;5075308;28;20839;-80
2022/05/06 04:28:31;;;;;;;6.03;2.27;;;14.80;59.70;;;;;;5072891;28;20272;-80
2022/05/06 04:31:00;;;;;;;4.87;1.93;;;14.80;59.20;;;;;;5079888;28;20897;-78
2022/05/06 04:33:30;;;;;;;10.43;3.20;;;14.80;59.20;;;;;;5085306;28;20229;-79
2022/05/06 04:36:03;;;;;;;7.67;2.47;;;14.90;59.30;;;;;;5086992;28;20186;-81
2022/05/06 04:38:33;;;;;;;10.60;2.50;;;14.90;59.10;;;;;;5079617;28;20626;-79
2022/05/06 04:41:02;;;;;;;6.87;2.70;;;14.90;58.80;;;;;;5082273;28;20750;-80
2022/05/06 04:43:32;;;;;;;5.37;2.30;;;15.00;59.00;;;;;;5076561;28;20195;-79
2022/05/06 04:46:00;;;;;;;6.80;2.57;;;15.00;58.90;;;;;;5071350;28;20191;-81
2022/05/06 04:48:39;;;;;;;6.20;2.67;;;15.00;58.90;;;;;;5080819;28;20193;-77
2022/05/06 04:51:07;;;;;;;4.77;2.17;;;15.10;58.90;;;;;;5086627;28;20189;-80
2022/05/06 04:53:35;;;;;;;8.57;2.90;;;15.20;58.90;;;;;;5085724;28;20190;-80
2022/05/06 04:56:06;;;;;;;7.30;2.80;;;15.20;58.80;;;;;;5083696;28;20243;-78
2022/05/06 04:58:34;;;;;;;9.67;2.80;;;15.20;58.80;;;;;;5082047;28;20913;-78
2022/05/06 05:01:03;;;;;;;9.53;2.30;;;15.30;58.70;;;;;;5074660;28;20194;-79
2022/05/06 05:03:33;;;;;;;5.03;2.33;;;15.30;58.30;;;;;;5087546;28;20194;-78
2022/05/06 05:06:02;;;;;;;10.23;2.87;;;15.40;58.30;;;;;;5078461;28;20200;-78
2022/05/06 05:08:30;;;;;;;4.70;2.33;;;15.40;58.30;;;;;;5074647;28;20765;-79
2022/05/06 05:11:02;;;;;;;4.93;2.60;;;15.50;58.30;;;;;;5083927;28;20197;-81
2022/05/06 05:13:34;;;;;;;6.97;2.07;;;15.50;58.40;;;;;;5080103;28;20957;-78
2022/05/06 05:16:02;;;;;;;9.43;2.80;;;15.50;58.30;;;;;;5077900;28;20200;-78
2022/05/06 05:18:31;;;;;;;7.77;2.70;;;15.60;58.20;;;;;;5066159;28;20694;-81
2022/05/06 05:21:01;;;;;;;12.57;2.60;;;15.60;58.30;;;;;;5068312;28;20194;-77
2022/05/06 05:23:31;;;;;;;5.70;2.33;;;15.70;59.20;;;;;;5079453;28;20194;-79
2022/05/06 05:25:59;;;;;;;6.47;2.87;;;15.70;58.30;;;;;;5080089;28;20192;-79
2022/05/06 05:28:28;;;;;;;13.07;2.60;;;15.80;58.30;;;;;;5077046;28;20623;-77
2022/05/06 05:30:56;;;;;;;7.50;2.80;;;15.80;58.40;;;;;;5076087;28;20193;-81
2022/05/06 05:33:24;;;;;;;5.77;2.20;;;15.90;58.50;;;;;;5079056;28;20247;-78
2022/05/06 05:35:53;;;;;;;9.13;2.80;;;16.00;58.60;;;;;;5080963;28;20190;-78
2022/05/06 05:38:23;;;;;;;7.63;2.77;;;16.00;58.10;;;;;;5076938;28;20194;-78
2022/05/06 05:40:51;;;;;;;10.70;2.43;;;16.10;58.30;;;;;;5076492;28;20269;-78
2022/05/06 05:48:52;;;;;;;5.30;2.33;;;16.40;58.50;;;;;;5066516;28;20866;-83
2022/05/06 05:51:20;;;;;;;4.40;2.30;;;16.60;58.40;;;;;;5075368;28;20199;-79
2022/05/06 05:53:50;;;;;;;8.63;2.13;;;16.70;58.30;;;;;;5069656;28;20190;-78
2022/05/06 05:56:18;;;;;;;4.93;2.60;;;16.80;58.30;;;;;;5074198;28;20208;-79
2022/05/06 05:58:48;;;;;;;5.77;2.37;;;16.90;58.30;;;;;;5062189;28;20718;-79
2022/05/06 06:01:21;;;;;;;8.77;2.60;;;17.00;57.60;;;;;;5070119;28;20430;-83
2022/05/06 06:03:49;;;;;;;8.87;2.53;;;17.10;57.10;;;;;;5074419;28;20225;-79
2022/05/06 06:06:30;;;;;;;8.63;2.23;;;17.10;57.20;;;;;;5064395;28;20191;-80
2022/05/06 06:09:00;;;;;;;6.70;2.27;;;17.20;57.20;;;;;;5078688;28;20555;-84
2022/05/06 06:11:28;;;;;;;10.47;2.57;;;17.30;57.10;;;;;;5077463;28;20199;-86
2022/05/06 06:13:57;;;;;;;4.77;2.00;;;17.40;56.80;;;;;;5079073;28;20651;-88
2022/05/06 06:16:26;;;;;;;5.57;2.57;;;17.50;56.70;;;;;;5073940;28;20198;-80
2022/05/06 06:18:55;;;;;;;7.60;2.73;;;17.60;56.50;;;;;;5062241;28;20214;-79
2022/05/06 06:21:23;;;;;;;8.90;2.60;;;17.60;56.50;;;;;;5068293;28;20585;-79
2022/05/06 06:23:51;;;;;;;6.85;2.70;;;17.70;56.40;;;;;;5065556;28;21354;-78
2022/05/06 06:26:23;;;;;;;7.47;2.60;;;17.90;56.30;;;;;;5076552;28;20196;-78
2022/05/06 06:28:51;;;;;;;9.40;2.70;;;17.90;55.60;;;;;;5071731;28;20904;-81
2022/05/06 06:31:20;;;;;;;5.47;2.57;;;18.00;55.60;;;;;;5067420;28;20213;-85
2022/05/06 06:33:49;;;;;;;5.63;2.30;;;18.10;55.60;;;;;;5076508;28;20223;-83
2022/05/06 06:36:18;;;;;;;6.07;2.47;;;18.10;55.60;;;;;;5043373;28;20194;-82
2022/05/06 06:38:48;;;;;;;8.40;2.90;;;18.20;55.80;;;;;;5076400;28;20201;-79
2022/05/06 06:41:16;;;;;;;9.77;2.50;;;18.30;55.70;;;;;;5078989;28;20190;-76
2022/05/06 06:43:46;;;;;;;11.57;2.93;;;18.40;55.70;;;;;;5082206;28;20494;-82
2022/05/06 06:46:14;;;;;;;5.70;2.40;;;18.50;56.10;;;;;;5075522;28;20200;-84
2022/05/06 06:48:44;;;;;;;10.03;2.10;;;18.60;55.70;;;;;;5078299;28;20647;-82
2022/05/06 06:51:12;;;;;;;5.17;2.27;;;18.70;55.30;;;;;;5079784;28;20250;-83
2022/05/06 06:53:40;;;;;;;7.43;2.40;;;18.70;55.30;;;;;;5072190;28;20194;-84
2022/05/06 06:56:09;;;;;;;5.90;2.20;;;18.90;55.20;;;;;;5068513;28;20691;-80
2022/05/06 06:58:37;;;;;;;22.03;3.67;;;18.90;54.80;;;;;;5062316;28;20202;-82
2022/05/06 07:01:07;;;;;;;7.47;2.43;;;19.00;54.70;;;;;;5062018;28;20226;-82
2022/05/06 07:03:35;;;;;;;6.20;2.27;;;19.10;54.90;;;;;;5086418;28;20197;-80
2022/05/06 07:11:55;;;;;;;6.27;2.20;;;19.30;53.90;;;;;;5068176;28;20208;-82
2022/05/06 07:14:25;;;;;;;10.13;4.30;;;19.40;53.70;;;;;;5075280;28;20224;-83
2022/05/06 07:16:55;;;;;;;11.30;4.50;;;19.40;53.80;;;;;;5081840;28;20484;-87
2022/05/06 07:19:24;;;;;;;8.70;3.07;;;19.60;53.80;;;;;;5072050;28;20218;-83
2022/05/06 07:21:53;;;;;;;10.03;2.43;;;19.60;53.90;;;;;;5072878;28;20243;-83
2022/05/06 07:24:24;;;;;;;5.80;2.60;;;19.60;53.80;;;;;;5068281;28;20197;-82
2022/05/06 07:29:31;;;;;;;8.10;2.40;;;19.80;53.50;;;;;;5005331;28;20320;-78
2022/05/06 07:34:36;;;;;;;4.77;2.33;;;19.90;52.80;;;;;;5152889;22;20472;-75
2022/05/06 07:37:05;;;;;;;6.13;2.20;;;20.00;52.90;;;;;;5033136;28;20302;-75
2022/05/06 07:39:34;;;;;;;6.17;2.13;;;20.00;52.90;;;;;;5036184;28;20218;-77
2022/05/06 07:42:02;;;;;;;6.37;2.10;;;20.10;52.50;;;;;;5040397;28;20195;-78
2022/05/06 07:44:31;;;;;;;6.67;2.23;;;20.20;52.80;;;;;;5039355;28;20640;-77
2022/05/06 07:46:59;;;;;;;4.37;2.57;;;20.30;52.60;;;;;;5043871;28;20203;-76
2022/05/06 07:49:28;;;;;;;6.30;2.53;;;20.30;51.80;;;;;;5037114;28;20199;-77
2022/05/06 07:51:58;;;;;;;9.17;2.67;;;20.40;51.80;;;;;;5038443;28;20811;-75
2022/05/06 07:54:26;;;;;;;4.87;2.13;;;20.40;51.70;;;;;;5033541;28;20196;-75
2022/05/06 07:56:54;;;;;;;5.20;2.23;;;20.50;51.90;;;;;;5045332;28;20194;-76
2022/05/06 07:59:23;;;;;;;4.27;1.93;;;20.50;51.30;;;;;;5046830;28;20191;-76
2022/05/06 08:04:37;;;;;;;7.70;1.90;;;20.70;50.60;;;;;;5043604;28;20187;-75
2022/05/06 08:07:08;;;;;;;3.33;1.70;;;20.70;50.60;;;;;;5044489;28;20199;-75
2022/05/06 08:09:38;;;;;;;5.57;2.23;;;20.80;50.40;;;;;;5040002;28;20547;-77
2022/05/06 08:12:07;;;;;;;5.13;1.70;;;20.90;50.20;;;;;;5038396;28;20191;-76
2022/05/06 08:14:36;;;;;;;7.28;2.10;;;20.90;50.00;;;;;;5037235;28;20195;-77
2022/05/06 08:17:05;;;;;;;2.93;1.67;;;21.00;48.90;;;;;;5037618;28;21789;-77
2022/05/06 08:19:33;;;;;;;6.40;2.10;;;21.00;49.20;;;;;;5025340;28;20676;-73
2022/05/06 08:22:02;;;;;;;3.42;1.90;;;21.10;49.50;;;;;;5034576;28;20195;-73
2022/05/06 08:24:31;;;;;;;4.90;2.03;;;21.20;49.30;;;;;;5039277;28;20192;-74
2022/05/06 08:27:01;;;;;;;7.57;2.08;;;21.20;49.00;;;;;;5038036;28;20192;-74
2022/05/06 08:29:29;;;;;;;6.28;2.10;;;21.30;48.80;;;;;;5036105;28;20198;-73
2022/05/06 08:31:57;;;;;;;3.80;1.98;;;21.40;48.90;;;;;;5031696;28;20692;-74
2022/05/06 08:34:26;;;;;;;3.97;1.70;;;21.40;48.70;;;;;;5037982;28;20235;-74
2022/05/06 08:36:54;;;;;;;6.38;1.50;;;21.50;47.60;;;;;;5034127;28;20200;-73
2022/05/06 08:42:13;;;;;;;6.90;1.80;;;21.60;47.70;;;;;;3932405;22;20230;-75
2022/05/06 08:53:12;;;;;;;3.83;1.55;;;21.80;45.80;;;;;;5019993;28;20199;-73
2022/05/06 08:55:40;;;;;;;6.40;1.63;;;21.90;45.50;;;;;;5021003;28;20196;-74
2022/05/06 08:58:10;;;;;;;2.70;1.10;;;21.90;45.70;;;;;;5018791;28;20199;-75
2022/05/06 09:00:39;;;;;;;3.00;1.27;;;21.90;44.60;;;;;;4989265;28;20237;-76
2022/05/06 09:03:07;;;;;;;4.43;1.60;;;22.00;45.00;;;;;;4972240;28;27709;-75
2022/05/06 09:08:43;;;;;;;5.50;1.63;;;22.20;46.00;;;;;;5115119;23;20222;-79
2022/05/06 09:11:11;;;;;;;7.80;2.15;;;22.20;44.80;;;;;;4951475;28;20196;-74
2022/05/06 09:13:55;;;;;;;3.53;1.50;;;22.30;44.90;;;;;;4961186;28;20209;-75
2022/05/06 09:16:43;;;;;;;3.97;1.30;;;22.40;44.40;;;;;;5312551;23;20320;-75
2022/05/06 09:19:14;;;;;;;2.63;1.60;;;22.40;44.10;;;;;;4943669;28;20615;-75
2022/05/06 09:21:58;;;;;;;7.00;1.95;;;22.50;44.70;;;;;;4955680;28;20225;-76
2022/05/06 09:24:28;;;;;;;8.65;1.98;;;22.50;45.30;;;;;;4959122;28;20200;-74
2022/05/06 09:26:58;;;;;;;7.07;1.65;;;22.60;44.40;;;;;;4959477;28;20198;-76
2022/05/06 09:29:35;;;;;;;3.13;1.80;;;22.70;43.90;;;;;;4959562;28;20819;-75
2022/05/06 09:32:16;;;;;;;6.10;1.83;;;22.70;44.50;;;;;;4960096;28;20197;-76
2022/05/06 09:34:45;;;;;;;4.78;1.40;;;22.80;44.50;;;;;;4961274;28;20727;-76
2022/05/06 09:37:32;;;;;;;7.32;1.55;;;22.90;44.20;;;;;;4966310;28;20194;-76
2022/05/06 09:40:09;;;;;;;3.80;1.70;;;22.90;43.40;;;;;;4963356;28;20220;-76
2022/05/06 09:42:39;;;;;;;5.18;1.80;;;23.00;43.00;;;;;;4952983;28;20316;-77
2022/05/06 09:45:14;;;;;;;5.10;1.88;;;23.00;42.80;;;;;;4953729;28;20202;-76
2022/05/06 09:47:58;;;;;;;6.15;1.83;;;23.10;43.20;;;;;;4961551;28;20209;-77
2022/05/06 09:50:34;;;;;;;6.22;1.77;;;23.10;43.50;;;;;;4956580;28;20688;-77
2022/05/06 09:53:04;;;;;;;6.15;1.63;;;23.20;43.40;;;;;;4956038;28;20293;-75
2022/05/06 09:55:32;;;;;;;5.93;1.88;;;23.20;42.20;;;;;;4959195;28;20447;-76
2022/05/06 09:58:01;;;;;;;9.10;2.10;;;23.30;42.00;;;;;;4960389;28;20206;-75
2022/05/06 10:00:31;;;;;;;4.13;1.88;;;23.30;42.20;;;;;;4953995;28;20218;-75
2022/05/06 10:03:00;;;;;;;3.65;1.70;;;23.40;42.60;;;;;;4958058;28;20206;-75
2022/05/06 10:05:30;;;;;;;5.28;1.50;;;23.40;42.90;;;;;;4961043;28;20286;-76
2022/05/06 10:08:01;;;;;;;4.70;1.70;;;23.50;42.80;;;;;;4956642;28;20189;-75
2022/05/06 10:10:32;;;;;;;3.85;1.67;;;23.60;42.80;;;;;;4961555;28;20194;-76
2022/05/06 10:13:04;;;;;;;4.45;1.58;;;23.60;42.30;;;;;;4964014;28;20197;-75
2022/05/06 10:15:34;;;;;;;3.13;1.70;;;23.60;41.90;;;;;;4955842;28;20185;-75
2022/05/06 10:18:07;;;;;;;5.32;1.83;;;23.70;42.40;;;;;;4960252;28;20232;-76
2022/05/06 10:20:49;;;;;;;8.70;1.90;;;23.80;42.90;;;;;;4959140;28;20244;-77
2022/05/06 10:23:19;;;;;;;5.10;1.88;;;23.90;42.10;;;;;;4958287;28;20589;-75
2022/05/06 10:25:54;;;;;;;4.20;1.75;;;24.00;42.00;;;;;;4950622;28;20202;-78
2022/05/06 10:34:31;;;;;;;4.47;1.35;;;24.30;41.70;;;;;;4958467;28;20182;-76
2022/05/06 10:37:02;;;;;;;3.78;1.50;;;24.30;41.20;;;;;;4954035;28;20195;-77
2022/05/06 10:39:36;;;;;;;5.07;1.80;;;24.30;41.00;;;;;;4951358;28;20198;-78
2022/05/06 10:42:06;;;;;;;4.50;1.75;;;24.30;41.10;;;;;;4958786;28;20241;-77
2022/05/06 10:44:36;;;;;;;4.35;1.50;;;24.40;41.50;;;;;;4956276;28;20698;-76
2022/05/06 10:47:45;;;;;;;3.72;1.50;;;24.40;41.00;;;;;;4959705;28;20272;-78
2022/05/06 10:50:15;;;;;;;7.43;1.92;;;24.50;40.90;;;;;;4957992;28;20205;-77
2022/05/06 10:52:45;;;;;;;3.83;1.45;;;24.50;39.90;;;;;;4957523;28;20222;-76
2022/05/06 10:55:25;;;;;;;4.43;1.52;;;24.50;40.10;;;;;;4952314;28;20206;-76
2022/05/06 10:58:02;;;;;;;5.95;1.48;;;24.50;40.70;;;;;;4953991;28;20220;-77
2022/05/06 11:00:33;;;;;;;8.38;1.70;;;24.60;40.20;;;;;;4952269;28;20194;-75
2022/05/06 11:03:02;;;;;;;4.00;1.75;;;24.60;40.70;;;;;;4954820;28;20236;-76
2022/05/06 11:05:31;;;;;;;6.93;1.33;;;24.70;40.80;;;;;;4958645;28;20209;-76
2022/05/06 11:08:01;;;;;;;5.80;1.50;;;24.80;40.20;;;;;;4948872;28;20210;-76
2022/05/06 11:10:34;;;;;;;3.22;1.40;;;24.80;40.00;;;;;;4958327;28;20270;-75
2022/05/06 11:13:25;;;;;;;6.82;1.77;;;24.80;40.30;;;;;;4958931;28;20205;-76
2022/05/06 11:15:55;;;;;;;4.45;1.60;;;24.90;40.70;;;;;;4962852;28;20542;-75
2022/05/06 11:18:26;;;;;;;3.65;1.45;;;24.90;40.70;;;;;;4964273;28;20308;-75
2022/05/06 11:20:54;;;;;;;3.30;1.63;;;25.00;40.70;;;;;;4966486;28;20195;-75
2022/05/06 11:23:30;;;;;;;6.90;1.65;;;25.00;40.00;;;;;;4963104;28;20221;-75
2022/05/06 11:25:59;;;;;;;5.05;1.63;;;25.00;40.00;;;;;;4964454;28;20194;-74
2022/05/06 11:28:30;;;;;;;3.85;1.77;;;25.00;40.50;;;;;;4963135;28;20710;-75
2022/05/06 11:31:00;;;;;;;5.25;1.98;;;25.00;40.30;;;;;;4961805;28;20189;-75
2022/05/06 11:33:31;;;;;;;7.70;1.92;;;25.10;40.10;;;;;;4964565;28;20658;-74
2022/05/06 11:36:06;;;;;;;3.28;1.50;;;25.20;40.00;;;;;;4963955;28;20201;-75
2022/05/06 11:38:46;;;;;;;5.30;1.60;;;25.20;40.20;;;;;;4961639;28;20329;-74
2022/05/06 11:41:16;;;;;;;3.65;1.50;;;25.30;40.00;;;;;;4955795;28;20195;-75
2022/05/06 11:43:46;;;;;;;3.38;1.63;;;25.30;39.60;;;;;;4962458;28;20675;-72
2022/05/06 11:49:03;;;;;;;3.70;1.20;;;25.40;40.00;;;;;;4960876;28;20201;-75
2022/05/06 11:51:36;;;;;;;5.32;1.77;;;25.40;39.70;;;;;;4956468;28;20202;-76
2022/05/06 11:54:06;;;;;;;4.93;1.65;;;25.40;39.00;;;;;;4959183;28;20194;-75
2022/05/06 11:56:39;;;;;;;3.20;1.38;;;25.40;38.90;;;;;;4954854;28;20667;-76
2022/05/06 11:59:08;;;;;;;5.68;1.60;;;25.40;38.40;;;;;;4963223;28;20198;-76
2022/05/06 12:01:38;;;;;;;7.57;1.63;;;25.40;38.80;;;;;;4963347;28;20194;-76
2022/05/06 12:04:10;;;;;;;3.97;1.73;;;25.50;38.20;;;;;;4963921;28;20182;-75
2022/05/06 12:06:41;;;;;;;4.75;1.65;;;25.50;37.60;;;;;;4960212;28;20289;-74
2022/05/06 12:09:11;;;;;;;3.30;1.20;;;25.50;37.80;;;;;;4947531;28;20387;-74
2022/05/06 12:11:40;;;;;;;2.67;1.30;;;25.60;38.40;;;;;;4955912;28;20516;-74
2022/05/06 12:14:10;;;;;;;4.65;1.38;;;25.60;38.40;;;;;;4965279;28;20201;-75
2022/05/06 12:16:53;;;;;;;7.53;1.60;;;25.70;38.60;;;;;;4960984;28;20670;-75
2022/05/06 12:19:38;;;;;;;3.97;1.75;;;25.70;38.70;;;;;;4956236;28;20194;-74
2022/05/06 12:22:08;;;;;;;4.65;1.45;;;25.80;39.20;;;;;;4961937;28;20206;-77
2022/05/06 12:24:45;;;;;;;3.42;1.65;;;25.80;38.60;;;;;;4969701;28;20194;-75
2022/05/06 12:27:23;;;;;;;5.78;1.80;;;25.80;38.20;;;;;;4954571;28;20802;-75
2022/05/06 12:29:51;;;;;;;6.05;1.98;;;25.80;37.60;;;;;;4954679;28;20190;-76
2022/05/06 12:32:20;;;;;;;5.30;1.25;;;25.70;36.10;;;;;;4957130;28;20194;-75
2022/05/06 12:35:04;;;;;;;6.07;1.70;;;25.60;36.00;;;;;;4958517;28;20898;-74
2022/05/06 12:37:33;;;;;;;5.47;1.35;;;25.70;36.70;;;;;;4958682;28;20186;-75
2022/05/06 12:40:02;;;;;;;4.38;1.70;;;25.70;36.90;;;;;;4958625;28;20205;-74
2022/05/06 12:42:31;;;;;;;3.90;1.73;;;25.70;37.30;;;;;;4960501;28;20229;-74
2022/05/06 12:45:19;;;;;;;8.88;1.42;;;25.80;37.50;;;;;;4959258;28;20206;-74
2022/05/06 12:50:35;;;;;;;7.88;1.77;;;25.80;36.50;;;;;;4959205;28;20202;-74
2022/05/06 12:53:03;;;;;;;4.45;1.77;;;25.80;36.80;;;;;;4963023;28;20208;-74
2022/05/06 12:55:32;;;;;;;4.28;2.00;;;25.80;37.30;;;;;;4963513;28;20201;-75
2022/05/06 12:58:01;;;;;;;1.98;1.10;;;25.80;38.20;;;;;;4956390;28;20539;-75
2022/05/06 13:00:29;;;;;;;2.95;1.20;;;25.80;36.90;;;;;;4949878;28;20195;-75
2022/05/06 13:02:58;;;;;;;3.20;1.40;;;25.80;36.30;;;;;;4960967;28;20234;-74
2022/05/06 13:05:27;;;;;;;6.50;1.50;;;25.70;35.90;;;;;;4959434;28;20874;-74
2022/05/06 13:07:57;;;;;;;2.92;1.00;;;25.70;36.60;;;;;;4955863;28;20194;-75
2022/05/06 13:10:26;;;;;;;3.60;1.42;;;25.70;37.10;;;;;;4954309;28;20264;-75
2022/05/06 13:12:54;;;;;;;5.90;1.48;;;25.80;37.20;;;;;;4959970;28;20194;-75
2022/05/06 13:15:22;;;;;;;2.47;1.42;;;25.80;37.00;;;;;;4959185;28;20288;-75
2022/05/06 13:17:51;;;;;;;3.65;1.50;;;25.80;36.70;;;;;;4962066;28;20225;-74
2022/05/06 13:20:20;;;;;;;7.03;2.80;;;25.80;36.80;;;;;;4961323;28;20197;-74
2022/05/06 13:22:48;;;;;;;7.65;2.10;;;25.90;36.70;;;;;;4952943;28;20552;-75
2022/05/06 13:25:18;;;;;;;4.50;1.50;;;25.80;36.70;;;;;;4956303;28;20205;-74
2022/05/06 13:27:47;;;;;;;3.40;1.98;;;25.90;36.80;;;;;;4956046;28;20189;-75
2022/05/06 13:30:15;;;;;;;4.15;1.67;;;25.90;36.70;;;;;;4960108;28;20193;-74
2022/05/06 13:32:45;;;;;;;3.70;1.80;;;25.90;36.90;;;;;;4960162;28;20239;-74
2022/05/06 13:35:14;;;;;;;8.85;1.35;;;25.90;36.80;;;;;;4953248;28;20195;-75
2022/05/06 13:37:43;;;;;;;6.28;1.52;;;25.90;36.80;;;;;;4955208;28;20201;-76
2022/05/06 13:40:12;;;;;;;5.50;1.63;;;25.90;36.20;;;;;;4956937;28;20793;-76
2022/05/06 13:42:42;;;;;;;3.95;1.30;;;25.90;36.50;;;;;;4958112;28;20225;-76
2022/05/06 13:45:11;;;;;;;5.65;1.90;;;25.90;37.00;;;;;;4960391;28;20719;-75
2022/05/06 13:47:40;;;;;;;7.63;1.45;;;25.90;37.00;;;;;;4948859;28;20935;-77
2022/05/06 13:50:09;;;;;;;6.30;1.42;;;25.90;36.40;;;;;;4957788;28;20198;-78
2022/05/06 13:52:39;;;;;;;2.80;1.25;;;25.90;36.50;;;;;;4957538;28;20198;-76
2022/05/06 13:55:08;;;;;;;7.22;1.63;;;25.90;36.30;;;;;;4954266;28;20688;-77
2022/05/06 14:00:32;;;;;;;5.65;1.27;;;25.90;36.30;;;;;;4956393;28;20209;-77
2022/05/06 14:03:01;;;;;;;3.13;1.38;;;25.90;36.10;;;;;;4959489;28;20315;-75
2022/05/06 14:05:32;;;;;;;10.50;1.77;;;25.90;36.40;;;;;;4956736;28;20571;-75